createdAt,value
2023-01-02T00:00:58.160Z,101416.47
2023-01-02T00:03:25.904Z,101436.75
2023-01-02T00:05:55.009Z,101430.84
2023-01-02T00:08:22.346Z,101453.78
2023-01-02T00:10:52.709Z,101445.97
2023-01-02T00:13:20.421Z,101451.41
2023-01-02T00:15:49.164Z,101454.91
2023-01-02T00:18:16.604Z,101464.41
2023-01-02T00:20:43.921Z,101469.63
2023-01-02T00:23:11.745Z,101459.72
2023-01-02T00:25:39.083Z,101454.41
2023-01-02T00:28:06.411Z,101453.16
2023-01-02T00:30:38.222Z,101444.06
2023-01-02T00:33:07.410Z,101437.63
2023-01-02T00:35:34.732Z,101423.22
2023-01-02T00:38:02.049Z,101401.69
2023-01-02T00:40:29.358Z,101411.09
2023-01-02T00:42:56.696Z,101383.38
2023-01-02T00:45:23.984Z,101365.19
2023-01-02T00:47:51.321Z,101357.38
2023-01-02T00:50:20.732Z,101346.44
2023-01-02T00:52:48.064Z,101331.19
2023-01-02T00:55:15.393Z,101319.59
2023-01-02T00:57:43.019Z,101310.75
2023-01-02T01:00:10.875Z,101300.00
2023-01-02T01:02:38.294Z,101286.44
2023-01-02T01:05:06.220Z,101283.50
2023-01-02T01:07:34.895Z,101263.91
2023-01-02T01:10:02.202Z,101243.19
2023-01-02T01:12:29.507Z,101232.25
2023-01-02T01:14:56.858Z,101202.72
2023-01-02T01:17:24.172Z,101181.44
2023-01-02T01:19:51.498Z,101157.94
2023-01-02T01:22:18.831Z,101124.03
2023-01-02T01:24:47.499Z,101095.31
2023-01-02T01:27:14.812Z,101062.56
2023-01-02T01:29:42.157Z,101040.44
2023-01-02T01:32:09.504Z,101018.19
2023-01-02T01:34:36.829Z,100994.00
2023-01-02T01:37:04.266Z,100973.00
2023-01-02T01:39:31.608Z,100950.66
2023-01-02T01:42:01.102Z,100956.28
2023-01-02T01:44:45.467Z,100956.59
2023-01-02T01:47:15.734Z,100944.00
2023-01-02T01:49:43.050Z,100947.97
2023-01-02T01:52:10.758Z,100963.38
2023-01-02T01:54:38.629Z,100962.69
2023-01-02T01:57:09.693Z,100966.34
2023-01-02T01:59:37.003Z,100979.91
2023-01-02T02:02:04.524Z,100987.16
2023-01-02T02:04:32.063Z,100988.16
2023-01-02T02:06:59.365Z,101001.75
2023-01-02T02:09:27.729Z,100997.81
2023-01-02T02:11:55.223Z,100987.75
2023-01-02T02:14:23.903Z,100974.00
2023-01-02T02:16:52.531Z,100947.97
2023-01-02T02:19:27.704Z,100922.59
2023-01-02T02:22:02.839Z,100902.88
2023-01-02T02:24:33.893Z,100870.53
2023-01-02T02:27:02.608Z,100824.84
2023-01-02T02:29:48.923Z,100777.88
2023-01-02T02:32:19.512Z,100733.59
2023-01-02T02:34:47.134Z,100680.59
2023-01-02T02:37:16.729Z,100620.63
2023-01-02T02:39:46.988Z,100564.63
2023-01-02T02:42:17.855Z,100503.94
2023-01-02T02:44:47.102Z,100452.59
2023-01-02T02:47:15.350Z,100399.38
2023-01-02T02:49:47.229Z,100363.63
2023-01-02T02:52:15.806Z,100308.22
2023-01-02T02:54:43.554Z,100267.97
2023-01-02T02:57:10.862Z,100235.69
2023-01-02T02:59:38.233Z,100196.41
2023-01-02T03:02:05.873Z,100169.47
2023-01-02T03:04:33.357Z,100145.53
2023-01-02T03:07:06.208Z,100119.25
2023-01-02T03:09:35.041Z,100107.41
2023-01-02T03:12:04.936Z,100099.38
2023-01-02T03:14:32.615Z,100073.13
2023-01-02T03:17:02.212Z,100056.13
2023-01-02T03:19:32.246Z,100036.44
2023-01-02T03:22:00.267Z,100016.78
2023-01-02T03:24:28.946Z,100020.91
2023-01-02T03:26:57.113Z,100001.06
2023-01-02T03:29:25.223Z,99994.09
2023-01-02T03:31:53.255Z,99981.69
2023-01-02T03:34:21.499Z,99978.88
2023-01-02T03:36:49.545Z,99970.69
2023-01-02T03:39:17.994Z,99962.34
2023-01-02T03:41:47.715Z,99956.38
2023-01-02T03:44:15.044Z,99955.34
2023-01-02T03:46:43.032Z,99963.16
2023-01-02T03:49:13.260Z,99964.53
2023-01-02T03:51:41.580Z,99962.06
2023-01-02T03:54:08.884Z,99971.41
2023-01-02T03:56:39.015Z,99982.06
2023-01-02T03:59:09.186Z,99977.56
2023-01-02T04:01:38.361Z,99984.44
2023-01-02T04:04:08.029Z,99988.94
2023-01-02T04:06:36.407Z,99995.47
2023-01-02T04:09:04.910Z,99993.16
2023-01-02T04:11:32.227Z,100006.81
2023-01-02T04:14:00.534Z,100016.00
2023-01-02T04:16:30.117Z,100025.34
2023-01-02T04:18:59.246Z,100046.66
2023-01-02T04:21:27.313Z,100054.47
2023-01-02T04:23:55.607Z,100067.59
2023-01-02T04:26:24.079Z,100068.63
2023-01-02T04:28:51.898Z,100075.31
2023-01-02T04:31:20.264Z,100093.94
2023-01-02T04:33:49.490Z,100099.28
2023-01-02T04:36:16.837Z,100097.16
2023-01-02T04:38:44.659Z,100103.66
2023-01-02T04:41:12.606Z,100094.47
2023-01-02T04:43:39.900Z,100090.47
2023-01-02T04:46:07.349Z,100068.78
2023-01-02T04:48:34.660Z,100055.47
2023-01-02T04:51:03.327Z,100053.47
2023-01-02T04:53:30.637Z,100046.28
2023-01-02T04:55:57.976Z,100028.84
2023-01-02T04:58:26.699Z,100032.97
2023-01-02T05:00:54.023Z,100028.13
2023-01-02T05:03:21.352Z,100017.13
2023-01-02T05:05:48.727Z,100020.44
2023-01-02T05:08:17.357Z,100016.31
2023-01-02T05:10:44.668Z,100017.31
2023-01-02T05:13:12.031Z,100013.97
2023-01-02T05:15:39.379Z,100023.16
2023-01-02T05:18:06.723Z,100030.13
2023-01-02T05:20:34.061Z,100026.13
2023-01-02T05:23:18.997Z,100040.09
2023-01-02T05:25:47.634Z,100062.75
2023-01-02T05:28:14.950Z,100096.06
2023-01-02T05:30:42.285Z,100132.88
2023-01-02T05:33:09.606Z,100179.34
2023-01-02T05:35:36.937Z,100216.66
2023-01-02T05:38:04.399Z,100247.94
2023-01-02T05:40:31.742Z,100291.72
2023-01-02T05:43:00.445Z,100325.50
2023-01-02T05:45:27.798Z,100358.63
2023-01-02T05:47:55.136Z,100376.44
2023-01-02T05:50:22.477Z,100409.72
2023-01-02T05:52:49.806Z,100415.88
2023-01-02T05:55:17.154Z,100429.03
2023-01-02T05:57:44.579Z,100440.00
2023-01-02T06:00:14.200Z,100448.16
2023-01-02T06:02:47.191Z,100456.31
2023-01-02T06:05:15.649Z,100482.13
2023-01-02T06:07:42.937Z,100499.06
2023-01-02T06:10:10.391Z,100512.38
2023-01-02T06:12:37.697Z,100508.22
2023-01-02T06:15:05.443Z,100514.84
2023-01-02T06:17:34.091Z,100521.31
2023-01-02T06:20:01.430Z,100513.34
2023-01-02T06:22:28.770Z,100518.31
2023-01-02T06:24:56.084Z,100522.44
2023-01-02T06:27:23.411Z,100524.78
2023-01-02T06:29:50.747Z,100525.78
2023-01-02T06:32:18.102Z,100523.44
2023-01-02T06:34:47.076Z,100520.78
2023-01-02T06:37:14.377Z,100522.09
2023-01-02T06:39:41.699Z,100524.09
2023-01-02T06:42:09.008Z,100514.97
2023-01-02T06:44:36.335Z,100489.84
2023-01-02T06:47:03.647Z,100473.38
2023-01-02T06:49:30.979Z,100435.47
2023-01-02T06:51:59.606Z,100395.72
2023-01-02T06:54:29.009Z,100364.63
2023-01-02T06:56:56.324Z,100344.16
2023-01-02T06:59:23.629Z,100320.69
2023-01-02T07:01:50.985Z,100283.13
2023-01-02T07:04:18.473Z,100261.47
2023-01-02T07:06:45.799Z,100242.34
2023-01-02T07:09:14.426Z,100209.84
2023-01-02T07:11:41.732Z,100172.06
2023-01-02T07:14:09.023Z,100151.59
2023-01-02T07:16:36.360Z,100126.44
2023-01-02T07:19:03.690Z,100103.41
2023-01-02T07:21:31.168Z,100066.59
2023-01-02T07:23:58.505Z,100057.78
2023-01-02T07:26:27.135Z,100048.78
2023-01-02T07:28:54.587Z,100030.50
2023-01-02T07:31:22.435Z,100020.66
2023-01-02T07:33:49.853Z,100025.47
2023-01-02T07:36:17.775Z,100013.81
2023-01-02T07:38:45.199Z,100009.31
2023-01-02T07:41:14.151Z,99994.19
2023-01-02T07:43:42.868Z,99979.66
2023-01-02T07:46:10.372Z,99985.19
2023-01-02T07:48:37.709Z,99974.16
2023-01-02T07:51:05.995Z,99982.31
2023-01-02T07:53:33.456Z,99975.81
2023-01-02T07:56:01.105Z,99975.44
2023-01-02T07:58:28.414Z,99968.47
2023-01-02T08:01:03.227Z,99980.41
2023-01-02T08:03:32.639Z,99982.06
2023-01-02T08:06:03.063Z,99989.69
2023-01-02T08:08:30.415Z,99985.03
2023-01-02T08:10:57.723Z,99988.72
2023-01-02T08:13:25.126Z,99985.19
2023-01-02T08:15:52.484Z,99987.84
2023-01-02T08:18:21.472Z,99993.66
2023-01-02T08:20:48.803Z,99978.31
2023-01-02T08:23:16.130Z,99993.66
2023-01-02T08:25:43.451Z,99992.47
2023-01-02T08:28:10.791Z,99989.81
2023-01-02T08:30:38.169Z,100002.75
2023-01-02T08:33:05.519Z,100006.25
2023-01-02T08:35:38.431Z,100009.84
2023-01-02T08:38:06.531Z,100017.84
2023-01-02T08:40:33.903Z,100006.53
2023-01-02T08:43:01.214Z,100021.22
2023-01-02T08:45:28.572Z,100024.72
2023-01-02T08:47:55.921Z,100022.53
2023-01-02T08:50:23.248Z,100030.81
2023-01-02T08:52:51.871Z,100034.13
2023-01-02T08:55:19.189Z,100046.63
2023-01-02T08:57:46.494Z,100026.31
2023-01-02T09:00:14.223Z,100032.13
2023-01-02T09:02:41.752Z,100046.44
2023-01-02T09:05:09.533Z,100056.38
2023-01-02T09:07:36.861Z,100057.03
2023-01-02T09:10:06.120Z,100063.00
2023-01-02T09:12:33.623Z,100065.16
2023-01-02T09:15:00.975Z,100066.44
2023-01-02T09:17:28.299Z,100083.53
2023-01-02T09:19:55.813Z,100076.81
2023-01-02T09:22:23.129Z,100072.13
2023-01-02T09:24:50.457Z,100079.16
2023-01-02T09:27:19.099Z,100089.72
2023-01-02T09:29:46.405Z,100100.19
2023-01-02T09:32:13.749Z,100108.28
2023-01-02T09:34:41.057Z,100103.78
2023-01-02T09:37:10.163Z,100112.28
2023-01-02T09:39:37.683Z,100128.47
2023-01-02T09:42:08.758Z,100142.63
2023-01-02T09:44:38.264Z,100139.59
2023-01-02T09:47:06.006Z,100154.91
2023-01-02T09:49:34.034Z,100151.22
2023-01-02T09:52:01.876Z,100158.84
2023-01-02T09:54:31.008Z,100145.81
2023-01-02T09:57:03.728Z,100155.09
2023-01-02T09:59:33.823Z,100169.91
2023-01-02T10:02:04.960Z,100169.53
2023-01-02T10:04:39.520Z,100195.78
2023-01-02T10:07:08.711Z,100200.47
2023-01-02T10:09:39.227Z,100216.53
2023-01-02T10:12:07.017Z,100204.94
2023-01-02T10:14:44.028Z,100205.13
2023-01-02T10:17:13.701Z,100206.69
2023-01-02T10:19:42.113Z,100201.63
2023-01-02T10:22:10.185Z,100207.44
2023-01-02T10:24:39.367Z,100211.47
2023-01-02T10:27:06.747Z,100215.47
2023-01-02T10:29:35.363Z,100204.88
2023-01-02T10:32:03.495Z,100206.91
2023-01-02T10:34:35.180Z,100212.34
2023-01-02T10:37:07.800Z,100216.31
2023-01-02T10:39:35.515Z,100212.53
2023-01-02T10:42:04.689Z,100210.97
2023-01-02T10:44:32.366Z,100207.16
2023-01-02T10:46:59.843Z,100220.56
2023-01-02T10:49:27.188Z,100219.38
2023-01-02T10:52:11.180Z,100215.28
2023-01-02T10:54:55.043Z,100227.09
2023-01-02T10:57:26.912Z,100225.91
2023-01-02T10:59:55.843Z,100224.25
2023-01-02T11:02:27.884Z,100233.91
2023-01-02T11:04:55.275Z,100237.78
2023-01-02T11:07:25.147Z,100248.66
2023-01-02T11:09:55.880Z,100251.28
2023-01-02T11:12:27.299Z,100273.56
2023-01-02T11:14:59.764Z,100273.28
2023-01-02T11:17:27.091Z,100285.03
2023-01-02T11:19:55.103Z,100294.16
2023-01-02T11:22:23.297Z,100312.03
2023-01-02T11:25:01.723Z,100352.19
2023-01-02T11:27:30.181Z,100386.34
2023-01-02T11:29:57.485Z,100435.00
2023-01-02T11:32:25.344Z,100483.59
2023-01-02T11:34:56.957Z,100528.22
2023-01-02T11:37:24.534Z,100562.00
2023-01-02T11:39:58.625Z,100598.81
2023-01-02T11:42:45.424Z,100647.06
2023-01-02T11:45:13.120Z,100675.03
2023-01-02T11:47:42.892Z,100699.16
2023-01-02T11:50:12.131Z,100719.63
2023-01-02T11:52:40.905Z,100738.28
2023-01-02T11:55:11.863Z,100758.75
2023-01-02T11:57:40.973Z,100759.75
2023-01-02T12:00:09.872Z,100759.22
2023-01-02T12:02:41.888Z,100747.72
2023-01-02T12:05:10.838Z,100753.88
2023-01-02T12:07:42.146Z,100765.03
2023-01-02T12:10:11.328Z,100724.91
2023-01-02T12:12:46.439Z,100693.94
2023-01-02T12:15:25.246Z,100656.84
2023-01-02T12:17:53.996Z,100622.31
2023-01-02T12:20:25.417Z,100601.34
2023-01-02T12:22:58.931Z,100591.47
2023-01-02T12:25:32.869Z,100574.84
2023-01-02T12:28:02.835Z,100553.22
2023-01-02T12:30:30.195Z,100552.22
2023-01-02T12:33:01.397Z,100548.06
2023-01-02T12:35:38.363Z,100543.22
2023-01-02T12:38:07.326Z,100548.72
2023-01-02T12:40:43.607Z,100551.66
2023-01-02T12:43:22.129Z,100543.00
2023-01-02T12:45:51.064Z,100544.56
2023-01-02T12:48:23.499Z,100542.03
2023-01-02T12:50:52.384Z,100543.84
2023-01-02T12:53:21.718Z,100544.00
2023-01-02T12:55:52.526Z,100535.25
2023-01-02T12:58:31.998Z,100529.59
2023-01-02T13:01:00.615Z,100547.56
2023-01-02T13:04:04.998Z,100550.38
2023-01-02T13:06:51.877Z,100551.84
2023-01-02T13:09:39.286Z,100554.31
2023-01-02T13:12:28.299Z,100565.50
2023-01-02T13:15:18.166Z,100559.16
2023-01-02T13:18:04.762Z,100560.97
2023-01-02T13:20:53.006Z,100572.28
2023-01-02T13:23:39.745Z,100579.28
2023-01-02T13:26:28.594Z,100589.41
2023-01-02T13:29:22.226Z,100601.72
2023-01-02T13:32:09.863Z,100619.13
2023-01-02T13:34:56.293Z,100621.91
2023-01-02T13:37:42.515Z,100629.72
2023-01-02T13:40:28.643Z,100646.47
2023-01-02T13:43:16.568Z,100673.22
2023-01-02T13:46:02.742Z,100705.97
2023-01-02T13:48:50.953Z,100727.00
2023-01-02T13:51:39.171Z,100760.69
2023-01-02T13:54:25.017Z,100769.63
2023-01-02T13:57:19.022Z,100796.75
2023-01-02T14:00:06.136Z,100820.44
2023-01-02T14:03:12.815Z,100854.59
2023-01-02T14:06:00.834Z,100898.78
2023-01-02T14:09:02.156Z,100944.25
2023-01-02T14:11:56.812Z,100986.53
2023-01-02T14:14:44.047Z,101025.28
2023-01-02T14:17:32.165Z,101077.28
2023-01-02T14:20:22.667Z,101120.38
2023-01-02T14:23:10.765Z,101155.22
2023-01-02T14:25:56.835Z,101182.06
2023-01-02T14:28:42.565Z,101220.75
2023-01-02T14:31:32.470Z,101251.53
2023-01-02T14:34:22.776Z,101276.97
2023-01-02T14:37:09.460Z,101292.06
2023-01-02T14:39:56.801Z,101329.72
2023-01-02T14:43:00.435Z,101355.00
2023-01-02T14:45:47.043Z,101365.19
2023-01-02T14:48:33.797Z,101390.28
2023-01-02T14:51:21.952Z,101420.31
2023-01-02T14:54:12.358Z,101446.13
2023-01-02T14:57:00.206Z,101470.16
2023-01-02T14:59:48.035Z,101496.22
2023-01-02T15:02:35.385Z,101519.28
2023-01-02T15:05:22.857Z,101533.06
2023-01-02T15:08:10.677Z,101559.41
2023-01-02T15:11:21.037Z,101566.25
2023-01-02T15:14:09.118Z,101592.22
2023-01-02T15:16:56.360Z,101601.63
2023-01-02T15:19:43.865Z,101630.34
2023-01-02T15:22:32.087Z,101654.22
2023-01-02T15:25:30.588Z,101667.00
2023-01-02T15:28:23.889Z,101671.69
2023-01-02T15:31:13.410Z,101685.09
2023-01-02T15:34:00.645Z,101698.84
2023-01-02T15:36:46.275Z,101715.97
2023-01-02T15:39:33.457Z,101733.81
2023-01-02T15:42:37.940Z,101745.72
2023-01-02T15:45:24.127Z,101758.13
2023-01-02T15:48:11.826Z,101785.00
2023-01-02T15:50:58.312Z,101802.00
2023-01-02T15:53:44.283Z,101812.59
2023-01-02T15:56:33.410Z,101835.75
2023-01-02T15:59:24.758Z,101836.84
2023-01-02T16:02:18.913Z,101837.91
2023-01-02T16:05:13.993Z,101843.28
2023-01-02T16:08:00.135Z,101849.56
2023-01-02T16:10:50.852Z,101854.50
2023-01-02T16:13:59.978Z,101853.75
2023-01-02T16:16:50.347Z,101877.00
2023-01-02T16:19:36.930Z,101878.09
2023-01-02T16:22:25.008Z,101885.38
2023-01-02T16:25:14.039Z,101906.69
2023-01-02T16:28:00.707Z,101908.63
2023-01-02T16:30:46.876Z,101909.81
2023-01-02T16:33:34.232Z,101919.69
2023-01-02T16:36:21.025Z,101934.84
2023-01-02T16:39:09.775Z,101929.56
2023-01-02T16:42:12.785Z,101942.16
2023-01-02T16:44:58.434Z,101945.13
2023-01-02T16:47:44.330Z,101965.72
2023-01-02T16:50:30.286Z,101975.69
2023-01-02T16:53:17.588Z,101976.63
2023-01-02T16:56:04.726Z,101983.84
2023-01-02T16:58:50.581Z,101994.69
2023-01-02T17:01:36.659Z,102005.28
2023-01-02T17:04:22.920Z,102001.22
2023-01-02T17:07:10.029Z,102009.06
2023-01-02T17:09:55.995Z,102006.63
2023-01-02T17:12:43.532Z,102019.88
2023-01-02T17:15:29.651Z,102026.34
2023-01-02T17:18:15.378Z,102029.94
2023-01-02T17:21:01.097Z,102019.56
2023-01-02T17:23:46.928Z,102026.78
2023-01-02T17:26:34.388Z,102033.00
2023-01-02T17:29:21.571Z,102028.66
2023-01-02T17:32:07.412Z,102020.81
2023-01-02T17:34:53.200Z,102026.97
2023-01-02T17:37:39.480Z,102014.69
2023-01-02T17:40:25.217Z,102014.78
2023-01-02T17:43:11.009Z,102017.44
2023-01-02T17:45:58.468Z,102022.63
2023-01-02T17:48:44.434Z,102029.72
2023-01-02T17:51:30.221Z,102029.00
2023-01-02T17:54:16.060Z,102019.34
2023-01-02T17:57:02.216Z,102031.63
2023-01-02T17:59:48.421Z,102026.44
2023-01-02T18:02:35.988Z,102028.25
2023-01-02T18:05:22.069Z,102029.28
2023-01-02T18:08:07.811Z,102029.28
2023-01-02T18:10:53.403Z,102031.06
2023-01-02T18:13:39.926Z,102033.94
2023-01-02T18:16:29.209Z,102026.28
2023-01-02T18:19:17.094Z,102028.00
2023-01-02T18:22:02.931Z,102038.59
2023-01-02T18:24:49.388Z,102041.31
2023-01-02T18:27:35.418Z,102041.25
2023-01-02T18:30:22.081Z,102042.16
2023-01-02T18:33:08.446Z,102037.09
2023-01-02T18:35:59.597Z,102037.31
2023-01-02T18:38:45.754Z,102043.66
2023-01-02T18:41:31.764Z,102037.31
2023-01-02T18:44:20.466Z,102047.25
2023-01-02T18:47:07.639Z,102050.97
2023-01-02T18:49:55.521Z,102058.06
2023-01-02T18:52:43.311Z,102063.34
2023-01-02T18:55:34.083Z,102074.78
2023-01-02T18:58:36.704Z,102080.09
2023-01-02T19:01:27.306Z,102084.53
2023-01-02T19:04:26.791Z,102096.19
2023-01-02T19:07:20.470Z,102103.91
2023-01-02T19:10:12.749Z,102108.25
2023-01-02T19:13:08.077Z,102119.69
2023-01-02T19:15:54.915Z,102129.97
2023-01-02T19:18:41.975Z,102125.63
2023-01-02T19:21:28.842Z,102128.38
2023-01-02T19:24:18.936Z,102140.56
2023-01-02T19:27:06.997Z,102147.66
2023-01-02T19:29:53.552Z,102149.56
2023-01-02T19:32:39.511Z,102159.41
2023-01-02T19:35:51.802Z,102154.09
2023-01-02T19:38:37.554Z,102151.47
2023-01-02T19:41:37.429Z,102160.56
2023-01-02T19:44:24.697Z,102165.00
2023-01-02T19:47:12.189Z,102168.59
2023-01-02T19:49:58.277Z,102172.09
2023-01-02T19:52:44.373Z,102171.25
2023-01-02T19:55:30.255Z,102181.84
2023-01-02T19:58:16.286Z,102188.72
2023-01-02T20:01:03.247Z,102197.63
2023-01-02T20:03:49.131Z,102191.47
2023-01-02T20:06:35.849Z,102210.97
2023-01-02T20:09:25.427Z,102225.16
2023-01-02T20:12:28.792Z,102235.53
2023-01-02T20:15:17.225Z,102234.22
2023-01-02T20:18:08.900Z,102252.00
2023-01-02T20:20:55.347Z,102259.09
2023-01-02T20:23:41.107Z,102279.41
2023-01-02T20:26:27.004Z,102285.75
2023-01-02T20:29:12.846Z,102296.44
2023-01-02T20:31:58.755Z,102315.16
2023-01-02T20:34:46.298Z,102316.97
2023-01-02T20:37:32.048Z,102336.59
2023-01-02T20:40:17.834Z,102333.94
2023-01-02T20:43:03.566Z,102341.03
2023-01-02T20:45:49.417Z,102348.97
2023-01-02T20:48:35.173Z,102350.97
2023-01-02T20:51:22.255Z,102357.19
2023-01-02T20:54:08.236Z,102361.00
2023-01-02T20:56:54.343Z,102356.84
2023-01-02T20:59:40.382Z,102354.28
2023-01-02T21:02:26.927Z,102354.44
2023-01-02T21:05:13.483Z,102352.94
2023-01-02T21:08:00.887Z,102345.66
2023-01-02T21:10:46.670Z,102352.91
2023-01-02T21:13:32.663Z,102343.63
2023-01-02T21:16:18.524Z,102334.28
2023-01-02T21:19:04.712Z,102327.66
2023-01-02T21:21:50.585Z,102330.47
2023-01-02T21:24:40.648Z,102314.03
2023-01-02T21:27:26.450Z,102317.91
2023-01-02T21:30:12.843Z,102320.69
2023-01-02T21:32:58.591Z,102322.97
2023-01-02T21:35:45.938Z,102319.03
2023-01-02T21:38:31.578Z,102325.34
2023-01-02T21:41:36.143Z,102320.44
2023-01-02T21:44:22.127Z,102310.16
2023-01-02T21:47:08.093Z,102323.53
2023-01-02T21:49:54.109Z,102336.97
2023-01-02T21:52:40.382Z,102340.84
2023-01-02T21:55:26.430Z,102356.84
2023-01-02T21:58:14.660Z,102362.41
2023-01-02T22:01:01.091Z,102381.03
2023-01-02T22:03:47.357Z,102399.63
2023-01-02T22:06:35.342Z,102405.00
2023-01-02T22:09:22.776Z,102422.63
2023-01-02T22:12:08.714Z,102431.56
2023-01-02T22:14:55.741Z,102447.41
2023-01-02T22:17:41.605Z,102448.34
2023-01-02T22:20:27.400Z,102461.56
2023-01-02T22:23:13.467Z,102471.34
2023-01-02T22:25:59.230Z,102483.72
2023-01-02T22:28:45.092Z,102486.44
2023-01-02T22:31:32.352Z,102499.63
2023-01-02T22:34:18.431Z,102519.06
2023-01-02T22:37:04.228Z,102527.91
2023-01-02T22:39:49.926Z,102528.84
2023-01-02T22:43:02.671Z,102537.53
2023-01-02T22:45:50.762Z,102544.69
2023-01-02T22:48:38.667Z,102555.41
2023-01-02T22:51:49.748Z,102565.03
2023-01-02T22:54:30.364Z,102578.22
2023-01-02T22:57:16.194Z,102592.38
2023-01-02T23:00:02.252Z,102589.88
2023-01-02T23:02:48.434Z,102585.53
2023-01-02T23:05:35.986Z,102586.63
2023-01-02T23:08:22.899Z,102594.63
2023-01-02T23:11:09.509Z,102593.16
2023-01-02T23:13:56.858Z,102590.63
2023-01-02T23:17:00.860Z,102591.75
2023-01-02T23:19:46.931Z,102580.66
2023-01-02T23:22:33.984Z,102580.91
2023-01-02T23:25:19.896Z,102577.53
2023-01-02T23:28:06.634Z,102582.28
2023-01-02T23:30:52.751Z,102584.13
2023-01-02T23:33:38.551Z,102587.00
2023-01-02T23:36:24.263Z,102587.22
2023-01-02T23:39:12.483Z,102597.91
2023-01-02T23:41:58.712Z,102609.59
2023-01-02T23:44:44.654Z,102616.03
2023-01-02T23:47:30.725Z,102617.16
2023-01-02T23:50:16.694Z,102613.91
2023-01-02T23:53:02.615Z,102620.09
2023-01-02T23:55:49.652Z,102621.97
2023-01-02T23:58:35.592Z,102620.41
